createdAt,value
2022-07-25T00:02:58.319Z,16.41
2022-07-25T00:06:00.717Z,16.46
2022-07-25T00:09:02.755Z,16.36
2022-07-25T00:12:05.120Z,16.30
2022-07-25T00:15:08.652Z,16.31
2022-07-25T00:18:10.809Z,16.31
2022-07-25T00:21:13.197Z,16.21
2022-07-25T00:24:15.289Z,16.20
2022-07-25T00:27:17.380Z,16.15
2022-07-25T00:30:19.499Z,16.15
2022-07-25T00:33:21.577Z,16.14
2022-07-25T00:36:23.663Z,16.07
2022-07-25T00:39:25.736Z,16.04
2022-07-25T00:42:27.910Z,15.99
2022-07-25T00:45:30.071Z,16.01
2022-07-25T00:48:32.140Z,16.03
2022-07-25T00:51:34.263Z,15.98
2022-07-25T00:54:36.499Z,15.95
2022-07-25T00:57:38.676Z,15.91
2022-07-25T01:00:41.048Z,15.90
2022-07-25T01:03:43.639Z,15.90
2022-07-25T01:06:45.839Z,15.85
2022-07-25T01:09:48.046Z,15.81
2022-07-25T01:12:51.988Z,15.77
2022-07-25T01:15:54.258Z,15.73
2022-07-25T01:18:56.405Z,15.72
2022-07-25T01:21:58.464Z,15.67
2022-07-25T01:25:00.610Z,15.63
2022-07-25T01:28:03.336Z,15.56
2022-07-25T01:31:06.201Z,15.50
2022-07-25T01:34:08.545Z,15.48
2022-07-25T01:37:10.875Z,15.54
2022-07-25T01:40:13.981Z,15.55
2022-07-25T01:43:16.321Z,15.56
2022-07-25T01:46:18.797Z,15.52
2022-07-25T01:49:21.115Z,15.51
2022-07-25T01:52:23.250Z,15.49
2022-07-25T01:55:25.441Z,15.44
2022-07-25T01:58:30.066Z,15.40
2022-07-25T02:01:32.272Z,15.39
2022-07-25T02:04:35.945Z,15.41
2022-07-25T02:07:38.353Z,15.37
2022-07-25T02:10:40.460Z,15.33
2022-07-25T02:13:42.664Z,15.33
2022-07-25T02:16:44.921Z,15.27
2022-07-25T02:19:47.152Z,15.18
2022-07-25T02:22:49.303Z,15.13
2022-07-25T02:25:51.351Z,15.09
2022-07-25T02:28:53.443Z,15.05
2022-07-25T02:31:55.644Z,15.02
2022-07-25T02:34:58.651Z,14.99
2022-07-25T02:38:00.857Z,14.99
2022-07-25T02:41:03.134Z,15.00
2022-07-25T02:44:06.700Z,14.99
2022-07-25T02:47:09.177Z,15.02
2022-07-25T02:50:14.599Z,15.00
2022-07-25T02:53:28.914Z,14.95
2022-07-25T02:56:39.232Z,14.98
2022-07-25T02:59:41.308Z,15.00
2022-07-25T03:02:43.643Z,14.95
2022-07-25T03:05:45.754Z,14.92
2022-07-25T03:08:47.948Z,14.89
2022-07-25T03:11:52.063Z,14.95
2022-07-25T03:14:54.192Z,14.97
2022-07-25T03:17:56.315Z,14.96
2022-07-25T03:20:58.400Z,14.92
2022-07-25T03:24:00.460Z,14.90
2022-07-25T03:27:02.654Z,14.86
2022-07-25T03:30:05.372Z,14.89
2022-07-25T03:33:07.559Z,14.87
2022-07-25T03:36:10.613Z,14.84
2022-07-25T03:39:13.127Z,14.86
2022-07-25T03:42:15.446Z,14.91
2022-07-25T03:45:18.156Z,14.92
2022-07-25T03:48:20.185Z,14.96
2022-07-25T03:51:22.280Z,14.96
2022-07-25T03:54:24.365Z,14.97
2022-07-25T03:57:26.609Z,15.02
2022-07-25T04:00:28.656Z,15.07
2022-07-25T04:03:30.673Z,15.09
2022-07-25T04:06:33.665Z,15.13
2022-07-25T04:09:35.746Z,15.17
2022-07-25T04:12:37.934Z,15.17
2022-07-25T04:15:39.956Z,15.22
2022-07-25T04:18:42.410Z,15.31
2022-07-25T04:21:45.925Z,15.39
2022-07-25T04:24:47.977Z,15.40
2022-07-25T04:27:50.109Z,15.45
2022-07-25T04:30:52.512Z,15.48
2022-07-25T04:33:54.679Z,15.52
2022-07-25T04:36:56.817Z,15.57
2022-07-25T04:39:58.872Z,15.56
2022-07-25T04:43:01.177Z,15.69
2022-07-25T04:46:03.502Z,15.76
2022-07-25T04:49:05.790Z,15.84
2022-07-25T04:52:08.009Z,15.92
2022-07-25T04:55:10.357Z,15.93
2022-07-25T04:58:12.587Z,16.02
2022-07-25T05:01:14.664Z,16.10
2022-07-25T05:04:16.936Z,16.11
2022-07-25T05:07:19.274Z,16.15
2022-07-25T05:10:21.439Z,16.21
2022-07-25T05:13:23.493Z,16.30
2022-07-25T05:16:26.208Z,16.39
2022-07-25T05:19:28.457Z,16.41
2022-07-25T05:22:30.554Z,16.51
2022-07-25T06:26:00.656Z,18.99
2022-07-25T06:29:02.905Z,19.15
2022-07-25T06:32:15.664Z,19.27
2022-07-25T06:35:19.044Z,19.46
2022-07-25T06:38:21.194Z,19.73
2022-07-25T06:41:23.321Z,20.02
2022-07-25T06:44:26.245Z,20.33
2022-07-25T06:47:31.727Z,20.76
2022-07-25T06:50:37.705Z,21.14
2022-07-25T06:53:39.744Z,21.46
2022-07-25T06:56:41.868Z,21.80
2022-07-25T06:59:45.274Z,22.22
2022-07-25T07:02:49.801Z,22.55
2022-07-25T07:05:54.537Z,22.82
2022-07-25T07:08:56.735Z,23.08
2022-07-25T07:11:59.157Z,23.40
2022-07-25T07:15:01.305Z,23.78
2022-07-25T07:18:04.144Z,24.17
2022-07-25T07:21:06.517Z,24.33
2022-07-25T07:24:24.278Z,24.77
2022-07-25T07:27:26.829Z,24.92
2022-07-25T07:30:58.457Z,25.36
2022-07-25T07:33:51.086Z,25.50
2022-07-25T07:36:53.212Z,25.84
2022-07-25T07:39:55.288Z,26.13
2022-07-25T07:42:58.729Z,26.53
2022-07-25T07:46:01.776Z,26.73
2022-07-25T07:49:04.618Z,26.95
2022-07-25T07:52:07.161Z,27.11
2022-07-25T07:55:29.201Z,27.07
2022-07-25T07:58:31.413Z,27.31
2022-07-25T08:01:33.991Z,27.57
2022-07-25T08:04:36.252Z,27.73
2022-07-25T08:07:38.452Z,28.04
2022-07-25T08:10:43.814Z,28.47
2022-07-25T08:13:46.002Z,28.61
2022-07-25T08:16:48.032Z,29.01
2022-07-25T08:19:50.120Z,29.30
2022-07-25T08:22:56.392Z,29.13
2022-07-25T08:25:58.947Z,28.70
2022-07-25T08:29:18.163Z,29.13
2022-07-25T08:32:21.665Z,29.77
2022-07-25T08:35:26.270Z,30.15
2022-07-25T08:38:29.581Z,30.38
2022-07-25T08:41:34.158Z,30.63
2022-07-25T08:44:40.956Z,30.77
2022-07-25T08:47:44.074Z,31.03
2022-07-25T08:50:47.551Z,30.62
2022-07-25T08:53:50.864Z,30.85
2022-07-25T08:56:52.898Z,31.30
2022-07-25T08:59:59.000Z,31.39
2022-07-25T09:03:03.170Z,31.50
2022-07-25T09:06:15.801Z,32.07
2022-07-25T09:09:18.538Z,32.54
2022-07-25T09:12:27.140Z,32.89
2022-07-25T09:15:32.073Z,32.72
2022-07-25T09:18:36.544Z,32.99
2022-07-25T09:21:40.080Z,32.59
2022-07-25T09:24:46.319Z,33.15
2022-07-25T09:27:48.447Z,33.14
2022-07-25T09:30:55.790Z,33.18
2022-07-25T09:33:59.680Z,33.59
2022-07-25T09:37:04.133Z,34.18
2022-07-25T09:40:15.245Z,34.59
2022-07-25T09:43:17.237Z,34.31
2022-07-25T09:46:32.732Z,34.46
2022-07-25T09:49:45.497Z,33.92
2022-07-25T09:52:47.863Z,34.37
2022-07-25T09:55:50.121Z,34.83
2022-07-25T09:58:53.078Z,34.47
2022-07-25T10:02:10.498Z,34.14
2022-07-25T10:05:32.920Z,34.13
2022-07-25T10:08:40.363Z,34.52
2022-07-25T10:12:05.465Z,34.44
2022-07-25T10:15:12.375Z,34.28
2022-07-25T10:18:15.821Z,34.58
2022-07-25T10:21:27.989Z,34.53
2022-07-25T10:24:35.392Z,34.38
2022-07-25T10:27:50.294Z,34.84
2022-07-25T10:30:58.826Z,34.76
2022-07-25T10:34:05.782Z,34.77
2022-07-25T10:37:15.031Z,34.74
2022-07-25T10:40:32.403Z,34.92
2022-07-25T10:43:39.018Z,35.34
2022-07-25T10:46:44.868Z,35.35
2022-07-25T10:53:45.132Z,36.05
2022-07-25T10:56:56.817Z,36.12
2022-07-25T11:00:09.411Z,35.95
2022-07-25T11:03:17.825Z,35.55
2022-07-25T11:06:38.494Z,35.92
2022-07-25T11:09:42.438Z,35.40
2022-07-25T11:12:48.521Z,36.00
2022-07-25T11:15:50.883Z,36.49
2022-07-25T11:18:54.627Z,36.57
2022-07-25T11:21:59.674Z,37.03
2022-07-25T11:25:03.298Z,37.39
2022-07-25T11:28:05.430Z,37.60
2022-07-25T11:31:07.642Z,37.50
2022-07-25T11:34:09.961Z,37.89
2022-07-25T11:37:13.160Z,38.40
2022-07-25T11:40:17.343Z,38.17
2022-07-25T11:43:24.046Z,37.71
2022-07-25T11:46:26.289Z,36.81
2022-07-25T11:49:28.772Z,36.28
2022-07-25T11:52:39.943Z,36.50
2022-07-25T11:55:45.494Z,37.08
2022-07-25T11:59:06.222Z,37.10
2022-07-25T12:02:08.570Z,37.19
2022-07-25T12:05:12.819Z,37.48
2022-07-25T12:08:17.345Z,37.60
2022-07-25T12:11:22.641Z,38.02
2022-07-25T12:14:24.701Z,38.17
2022-07-25T12:17:26.748Z,37.60
2022-07-25T12:20:48.221Z,37.99
2022-07-25T12:23:50.237Z,38.34
2022-07-25T12:26:52.511Z,37.80
2022-07-25T12:29:54.809Z,38.29
2022-07-25T12:32:59.047Z,38.02
2022-07-25T12:36:06.581Z,37.96
2022-07-25T12:39:10.760Z,37.80
2022-07-25T12:42:12.928Z,37.94
2022-07-25T12:45:17.330Z,38.03
2022-07-25T12:48:19.460Z,37.93
2022-07-25T12:51:22.302Z,38.58
2022-07-25T12:54:27.578Z,38.77
2022-07-25T12:57:29.693Z,39.03
2022-07-25T13:00:31.737Z,39.35
2022-07-25T13:03:33.891Z,39.81
2022-07-25T13:06:38.742Z,39.68
2022-07-25T13:09:41.138Z,39.77
2022-07-25T13:12:43.314Z,39.20
2022-07-25T13:15:45.589Z,39.41
2022-07-25T13:18:47.768Z,39.24
2022-07-25T13:21:49.815Z,39.41
2022-07-25T13:24:52.892Z,40.03
2022-07-25T13:27:55.070Z,40.79
2022-07-25T13:30:57.300Z,41.17
2022-07-25T13:33:59.415Z,41.24
2022-07-25T13:37:01.633Z,41.61
2022-07-25T13:40:04.660Z,40.84
2022-07-25T13:43:07.030Z,41.45
2022-07-25T13:46:09.521Z,41.33
2022-07-25T13:49:12.250Z,41.32
2022-07-25T13:52:14.552Z,41.54
2022-07-25T13:55:16.695Z,41.45
2022-07-25T13:58:18.838Z,42.09
2022-07-25T14:01:21.819Z,42.07
2022-07-25T14:04:24.239Z,41.75
2022-07-25T14:07:26.357Z,42.61
2022-07-25T14:10:28.517Z,43.23
2022-07-25T14:13:30.639Z,42.96
2022-07-25T14:16:34.017Z,44.91
2022-07-25T14:19:36.302Z,47.23
2022-07-25T14:22:39.879Z,48.83
2022-07-25T14:25:47.829Z,48.60
2022-07-25T14:28:50.115Z,49.76
2022-07-25T14:31:52.267Z,50.11
2022-07-25T14:34:54.396Z,50.37
2022-07-25T14:37:56.513Z,50.98
2022-07-25T14:40:58.535Z,51.25
2022-07-25T14:44:00.917Z,51.71
2022-07-25T14:47:03.024Z,52.24
2022-07-25T14:50:06.164Z,51.73
2022-07-25T14:53:08.290Z,50.60
2022-07-25T14:56:10.363Z,51.12
2022-07-25T14:59:12.628Z,49.30
2022-07-25T15:02:14.821Z,50.50
2022-07-25T15:05:17.014Z,51.85
2022-07-25T15:08:19.162Z,50.52
2022-07-25T15:11:21.840Z,51.42
2022-07-25T15:14:23.895Z,52.68
2022-07-25T15:17:26.044Z,53.71
2022-07-25T15:20:28.390Z,53.64
2022-07-25T15:23:31.194Z,54.07
2022-07-25T15:26:33.511Z,53.08
2022-07-25T15:29:35.858Z,53.34
2022-07-25T15:32:39.271Z,53.46
2022-07-25T15:35:42.035Z,54.00
2022-07-25T15:38:45.004Z,53.59
2022-07-25T15:41:47.048Z,53.78
2022-07-25T15:44:49.406Z,53.62
2022-07-25T15:47:52.145Z,53.39
2022-07-25T15:50:56.354Z,53.09
2022-07-25T15:53:58.407Z,53.44
2022-07-25T15:57:00.560Z,53.70
2022-07-25T16:00:03.963Z,53.57
2022-07-25T16:03:10.581Z,53.50
2022-07-25T16:06:18.416Z,52.99
2022-07-25T16:09:21.245Z,52.84
2022-07-25T16:12:28.310Z,53.04
2022-07-25T16:15:31.199Z,53.23
2022-07-25T16:18:33.346Z,53.05
2022-07-25T16:21:35.482Z,52.25
2022-07-25T16:24:40.645Z,51.19
2022-07-25T16:27:42.755Z,47.70
2022-07-25T16:30:44.829Z,43.91
2022-07-25T16:33:46.954Z,41.02
2022-07-25T16:36:49.018Z,39.38
2022-07-25T16:39:51.046Z,38.26
2022-07-25T16:42:55.896Z,37.62
2022-07-25T16:45:58.114Z,37.05
2022-07-25T16:49:00.252Z,36.19
2022-07-25T16:52:02.340Z,35.36
2022-07-25T16:55:05.546Z,34.69
2022-07-25T16:58:07.625Z,34.14
2022-07-25T17:01:09.761Z,33.65
2022-07-25T17:04:11.829Z,33.56
2022-07-25T17:07:14.131Z,33.37
2022-07-25T17:10:16.193Z,32.94
2022-07-25T17:13:18.261Z,32.42
2022-07-25T17:16:20.428Z,32.04
2022-07-25T17:19:22.569Z,31.54
2022-07-25T17:22:24.660Z,31.33
2022-07-25T17:25:27.394Z,30.98
2022-07-25T17:28:29.521Z,30.63
2022-07-25T17:31:31.644Z,30.58
2022-07-25T17:34:34.069Z,30.32
2022-07-25T17:37:36.219Z,29.96
2022-07-25T17:40:38.433Z,29.57
2022-07-25T17:43:40.726Z,29.51
2022-07-25T17:46:42.993Z,29.48
2022-07-25T17:49:48.707Z,29.22
2022-07-25T17:52:51.154Z,28.96
2022-07-25T17:55:53.497Z,28.74
2022-07-25T17:58:55.752Z,28.57
2022-07-25T18:01:59.286Z,28.21
2022-07-25T18:05:01.417Z,27.85
2022-07-25T18:08:04.503Z,27.61
2022-07-25T18:11:06.628Z,27.44
2022-07-25T18:14:09.555Z,27.34
2022-07-25T18:17:12.271Z,27.32
2022-07-25T18:20:16.561Z,27.16
2022-07-25T18:23:18.692Z,26.92
2022-07-25T18:26:22.082Z,26.91
2022-07-25T18:29:24.519Z,26.70
2022-07-25T18:32:26.705Z,26.58
2022-07-25T18:35:31.704Z,26.35
2022-07-25T18:38:33.830Z,26.40
2022-07-25T18:41:37.467Z,26.18
2022-07-25T18:44:39.551Z,26.10
2022-07-25T18:47:42.298Z,26.05
2022-07-25T18:50:44.417Z,26.09
2022-07-25T18:53:48.478Z,25.90
2022-07-25T18:56:50.943Z,25.72
2022-07-25T18:59:53.021Z,25.56
2022-07-25T19:02:55.191Z,25.42
2022-07-25T19:06:02.831Z,25.33
2022-07-25T19:09:05.725Z,25.28
2022-07-25T19:12:08.234Z,25.06
2022-07-25T19:15:10.637Z,24.96
2022-07-25T19:18:12.755Z,24.87
2022-07-25T19:21:15.623Z,24.77
2022-07-25T19:24:18.263Z,24.67
2022-07-25T19:27:20.711Z,24.56
2022-07-25T19:30:22.990Z,24.39
2022-07-25T19:33:25.765Z,24.43
2022-07-25T19:36:38.210Z,24.40
2022-07-25T19:39:40.314Z,24.31
2022-07-25T19:42:42.630Z,24.37
2022-07-25T19:45:44.867Z,24.30
2022-07-25T19:48:47.245Z,24.19
2022-07-25T19:51:49.419Z,24.06
2022-07-25T19:54:51.584Z,23.96
2022-07-25T19:57:53.637Z,24.04
2022-07-25T20:00:55.714Z,24.15
2022-07-25T20:03:57.729Z,24.09
2022-07-25T20:07:02.520Z,24.10
2022-07-25T20:10:05.588Z,24.02
2022-07-25T20:13:07.824Z,24.04
2022-07-25T20:16:09.972Z,24.10
2022-07-25T20:19:12.480Z,24.03
2022-07-25T20:22:14.533Z,23.90
2022-07-25T20:25:16.644Z,23.72
2022-07-25T20:28:18.986Z,23.73
2022-07-25T20:31:24.484Z,23.62
2022-07-25T20:34:26.586Z,23.52
2022-07-25T20:37:28.613Z,23.39
2022-07-25T20:40:30.824Z,23.48
2022-07-25T20:43:34.913Z,23.53
2022-07-25T20:46:37.162Z,23.42
2022-07-25T20:49:39.853Z,23.31
2022-07-25T20:52:41.968Z,23.26
2022-07-25T20:55:44.047Z,23.24
2022-07-25T20:58:46.113Z,23.17
2022-07-25T21:01:48.425Z,23.05
2022-07-25T21:04:50.654Z,22.97
2022-07-25T21:07:53.203Z,22.99
2022-07-25T21:10:55.435Z,22.95
2022-07-25T21:13:57.633Z,22.84
2022-07-25T21:17:00.720Z,22.76
2022-07-25T21:20:03.433Z,22.67
2022-07-25T21:23:05.577Z,22.57
2022-07-25T21:26:07.695Z,22.51
2022-07-25T21:29:10.248Z,22.44
2022-07-25T21:32:14.012Z,22.31
2022-07-25T21:35:16.164Z,22.19
2022-07-25T21:38:27.633Z,22.14
2022-07-25T21:41:30.548Z,22.08
2022-07-25T21:44:32.711Z,22.03
2022-07-25T21:47:35.279Z,22.03
2022-07-25T21:50:44.002Z,22.08
2022-07-25T21:53:47.947Z,22.06
2022-07-25T21:56:50.097Z,21.99
2022-07-25T21:59:52.155Z,21.96
2022-07-25T22:02:54.157Z,21.96
2022-07-25T22:05:56.421Z,21.98
2022-07-25T22:08:58.572Z,22.05
2022-07-25T22:12:00.642Z,21.96
2022-07-25T22:15:03.022Z,21.89
2022-07-25T22:18:05.874Z,21.79
2022-07-25T22:21:08.050Z,21.72
2022-07-25T22:24:10.254Z,21.66
2022-07-25T22:27:12.476Z,21.62
2022-07-25T22:30:19.187Z,21.52
2022-07-25T22:33:21.639Z,21.47
2022-07-25T22:36:23.675Z,21.51
2022-07-25T22:39:25.725Z,21.54
2022-07-25T22:42:28.831Z,21.49
2022-07-25T22:45:31.220Z,21.35
2022-07-25T22:48:33.356Z,21.25
2022-07-25T22:51:35.475Z,21.29
2022-07-25T22:54:37.560Z,21.26
2022-07-25T22:57:39.696Z,21.25
2022-07-25T23:00:41.993Z,21.23
2022-07-25T23:03:44.168Z,21.17
2022-07-25T23:06:46.551Z,21.04
2022-07-25T23:09:48.757Z,20.93
2022-07-25T23:12:50.839Z,20.86
2022-07-25T23:15:53.158Z,20.83
2022-07-25T23:18:55.959Z,20.80
2022-07-25T23:21:58.005Z,20.73
2022-07-25T23:25:00.074Z,20.72
2022-07-25T23:28:02.417Z,20.80
2022-07-25T23:31:04.954Z,20.79
2022-07-25T23:34:07.428Z,20.86
2022-07-25T23:37:09.600Z,20.97
2022-07-25T23:40:12.515Z,21.00
2022-07-25T23:43:15.148Z,20.96
2022-07-25T23:46:27.698Z,20.93
2022-07-25T23:49:31.553Z,21.03
2022-07-25T23:52:33.787Z,21.11
2022-07-25T23:55:35.818Z,21.12
2022-07-25T23:58:37.871Z,21.13
